Terminal Aerodrome Forecast
Issued by NWS Wichita, KS

Home | Current Version | Previous Version | Text Only | Print | Product List | Glossary On
Versions: 1 2 3 4 5 6 7 8 9 10 11 12 13 14 15 16 17 18 19 20 21 22 23 24 25 26 27 28 29 30 31 32 33 34 35 36
000
FTUS43 KICT 180907 AAC
TAFICT
TAF AMD
KICT 180907Z 1809/1906 10004KT 1 1/2SM -SN OVC005
      TEMPO 1809/1812 3SM -SN SCT005 OVC015
     FM181200 03007KT 1/2SM FG OVC007
     FM181800 02007KT 4SM BR SCT007 BKN015
     FM182100 02005KT 5SM BR BKN015=

USA.gov is the U.S. government's official web portal to all federal, state and local government web resources and services.